sensor_id;sensor_type;location;lat;lon;timestamp;pressure;altitude;pressure_sealevel;temperature;humidity
22096;BME280;24083;55.670;37.568;2023-06-22T00:01:53;99160.38;;;20.27;52.33
22096;BME280;24083;55.670;37.568;2023-06-22T00:04:19;99162.88;;;20.19;52.28
22096;BME280;24083;55.670;37.568;2023-06-22T00:06:46;99155.53;;;20.42;52.06
22096;BME280;24083;55.670;37.568;2023-06-22T00:09:24;99155.97;;;20.47;51.91
22096;BME280;24083;55.670;37.568;2023-06-22T00:11:53;99161.63;;;20.23;52.17
22096;BME280;24083;55.670;37.568;2023-06-22T00:14:27;99160.50;;;20.25;52.18
22096;BME280;24083;55.670;37.568;2023-06-22T00:16:56;99155.63;;;20.21;52.04
22096;BME280;24083;55.670;37.568;2023-06-22T00:19:23;99156.56;;;19.79;52.54
22096;BME280;24083;55.670;37.568;2023-06-22T00:21:50;99152.34;;;20.38;52.35
22096;BME280;24083;55.670;37.568;2023-06-22T00:24:34;99160.19;;;20.09;52.97
22096;BME280;24083;55.670;37.568;2023-06-22T00:33:58;99161.97;;;19.98;52.78
22096;BME280;24083;55.670;37.568;2023-06-22T00:36:27;99158.13;;;20.22;52.31
22096;BME280;24083;55.670;37.568;2023-06-22T00:44:55;99157.56;;;20.19;51.78
22096;BME280;24083;55.670;37.568;2023-06-22T00:51:15;99153.47;;;20.55;51.70
22096;BME280;24083;55.670;37.568;2023-06-22T00:53:42;99160.59;;;20.14;52.29
22096;BME280;24083;55.670;37.568;2023-06-22T00:56:10;99158.34;;;19.99;52.36
22096;BME280;24083;55.670;37.568;2023-06-22T01:05:02;99160.59;;;20.14;52.47
22096;BME280;24083;55.670;37.568;2023-06-22T01:11:21;99152.28;;;20.28;52.75
22096;BME280;24083;55.670;37.568;2023-06-22T01:14:42;99166.06;;;20.22;52.65
22096;BME280;24083;55.670;37.568;2023-06-22T01:17:27;99160.03;;;20.00;53.03
22096;BME280;24083;55.670;37.568;2023-06-22T01:19:58;99165.66;;;20.27;52.76
22096;BME280;24083;55.670;37.568;2023-06-22T01:28:54;99174.66;;;20.55;52.02
22096;BME280;24083;55.670;37.568;2023-06-22T01:31:24;99167.69;;;20.54;52.16
22096;BME280;24083;55.670;37.568;2023-06-22T01:34:12;99164.88;;;20.56;52.14
22096;BME280;24083;55.670;37.568;2023-06-22T01:36:42;99167.44;;;20.77;51.69
22096;BME280;24083;55.670;37.568;2023-06-22T01:39:10;99159.78;;;20.94;51.40
22096;BME280;24083;55.670;37.568;2023-06-22T01:41:39;99164.88;;;20.56;51.97
22096;BME280;24083;55.670;37.568;2023-06-22T01:51:13;99155.75;;;19.88;53.12
22096;BME280;24083;55.670;37.568;2023-06-22T01:54:06;99165.34;;;20.10;53.25
22096;BME280;24083;55.670;37.568;2023-06-22T01:56:33;99163.63;;;19.99;53.63
22096;BME280;24083;55.670;37.568;2023-06-22T01:59:31;99166.66;;;19.95;54.18
22096;BME280;24083;55.670;37.568;2023-06-22T02:08:04;99162.28;;;20.85;52.23
22096;BME280;24083;55.670;37.568;2023-06-22T02:10:36;99165.50;;;21.18;51.65
22096;BME280;24083;55.670;37.568;2023-06-22T02:13:06;99178.56;;;20.71;52.57
22096;BME280;24083;55.670;37.568;2023-06-22T02:15:57;99170.44;;;20.33;53.33
22096;BME280;24083;55.670;37.568;2023-06-22T02:18:49;99158.66;;;20.16;53.53
22096;BME280;24083;55.670;37.568;2023-06-22T02:21:21;99166.16;;;20.61;53.11
22096;BME280;24083;55.670;37.568;2023-06-22T02:23:50;99166.19;;;20.11;54.25
22096;BME280;24083;55.670;37.568;2023-06-22T02:26:31;99156.16;;;21.04;52.31
22096;BME280;24083;55.670;37.568;2023-06-22T02:29:06;99154.06;;;20.98;52.68
22096;BME280;24083;55.670;37.568;2023-06-22T02:31:56;99146.25;;;21.16;52.46
22096;BME280;24083;55.670;37.568;2023-06-22T02:34:24;99145.56;;;20.14;54.32
22096;BME280;24083;55.670;37.568;2023-06-22T02:36:51;99147.97;;;20.27;54.21
22096;BME280;24083;55.670;37.568;2023-06-22T02:39:24;99151.56;;;20.07;54.39
22096;BME280;24083;55.670;37.568;2023-06-22T02:41:54;99137.84;;;20.52;53.81
22096;BME280;24083;55.670;37.568;2023-06-22T02:45:01;99126.13;;;20.55;53.74
22096;BME280;24083;55.670;37.568;2023-06-22T02:50:50;99142.47;;;19.99;53.92
22096;BME280;24083;55.670;37.568;2023-06-22T02:53:33;99133.97;;;20.56;53.22
22096;BME280;24083;55.670;37.568;2023-06-22T02:56:01;99138.13;;;20.69;53.31
22096;BME280;24083;55.670;37.568;2023-06-22T02:58:57;99135.38;;;20.80;53.90
22096;BME280;24083;55.670;37.568;2023-06-22T03:01:30;99137.00;;;20.42;53.96
22096;BME280;24083;55.670;37.568;2023-06-22T03:03:57;99121.56;;;21.06;52.96
22096;BME280;24083;55.670;37.568;2023-06-22T03:06:27;99125.63;;;20.90;53.51
22096;BME280;24083;55.670;37.568;2023-06-22T03:09:01;99121.31;;;21.57;52.48
22096;BME280;24083;55.670;37.568;2023-06-22T03:11:31;99128.25;;;20.51;53.76
22096;BME280;24083;55.670;37.568;2023-06-22T03:13:58;99115.84;;;21.01;53.08
22096;BME280;24083;55.670;37.568;2023-06-22T03:16:25;99118.63;;;21.09;52.98
22096;BME280;24083;55.670;37.568;2023-06-22T03:18:53;99124.50;;;20.83;53.14
22096;BME280;24083;55.670;37.568;2023-06-22T03:21:22;99116.84;;;20.80;53.33
22096;BME280;24083;55.670;37.568;2023-06-22T03:23:49;99120.88;;;20.65;53.47
22096;BME280;24083;55.670;37.568;2023-06-22T03:26:19;99115.56;;;20.45;53.58
22096;BME280;24083;55.670;37.568;2023-06-22T03:28:47;99113.03;;;20.73;53.75
22096;BME280;24083;55.670;37.568;2023-06-22T03:31:16;99113.28;;;21.29;52.62
22096;BME280;24083;55.670;37.568;2023-06-22T03:33:44;99108.97;;;21.75;52.21
22096;BME280;24083;55.670;37.568;2023-06-22T03:36:09;99106.53;;;20.77;52.67
22096;BME280;24083;55.670;37.568;2023-06-22T03:39:02;99118.66;;;20.89;52.87
22096;BME280;24083;55.670;37.568;2023-06-22T03:45:31;99101.38;;;20.85;52.22
22096;BME280;24083;55.670;37.568;2023-06-22T03:48:12;99093.84;;;20.90;53.16
22096;BME280;24083;55.670;37.568;2023-06-22T03:50:38;99087.00;;;20.98;52.40
22096;BME280;24083;55.670;37.568;2023-06-22T03:53:21;99094.84;;;21.37;52.54
22096;BME280;24083;55.670;37.568;2023-06-22T03:55:49;99085.91;;;21.38;52.38
22096;BME280;24083;55.670;37.568;2023-06-22T03:58:26;99093.53;;;21.89;51.67
22096;BME280;24083;55.670;37.568;2023-06-22T04:04:59;99092.09;;;22.41;50.79
22096;BME280;24083;55.670;37.568;2023-06-22T04:08:28;99091.97;;;22.24;50.87
22096;BME280;24083;55.670;37.568;2023-06-22T04:15:21;99084.50;;;22.09;50.82
22096;BME280;24083;55.670;37.568;2023-06-22T04:18:08;99079.91;;;21.36;52.58
22096;BME280;24083;55.670;37.568;2023-06-22T04:20:34;99088.09;;;21.53;51.90
22096;BME280;24083;55.670;37.568;2023-06-22T04:42:47;99081.44;;;22.68;50.73
22096;BME280;24083;55.670;37.568;2023-06-22T04:49:08;99070.91;;;22.77;51.45
22096;BME280;24083;55.670;37.568;2023-06-22T04:55:01;99068.59;;;24.04;50.56
22096;BME280;24083;55.670;37.568;2023-06-22T04:57:43;99065.13;;;22.63;51.99
22096;BME280;24083;55.670;37.568;2023-06-22T05:03:20;99077.06;;;23.04;51.96
22096;BME280;24083;55.670;37.568;2023-06-22T05:06:12;99081.84;;;23.00;51.91
22096;BME280;24083;55.670;37.568;2023-06-22T05:12:22;99087.47;;;22.97;52.24
22096;BME280;24083;55.670;37.568;2023-06-22T05:19:30;99079.09;;;23.10;52.36
22096;BME280;24083;55.670;37.568;2023-06-22T05:24:46;99085.22;;;22.66;51.90
22096;BME280;24083;55.670;37.568;2023-06-22T05:35:27;99073.78;;;23.71;52.08
22096;BME280;24083;55.670;37.568;2023-06-22T05:50:18;99074.44;;;23.65;51.80
22096;BME280;24083;55.670;37.568;2023-06-22T06:04:31;99067.13;;;24.18;51.44
22096;BME280;24083;55.670;37.568;2023-06-22T06:07:43;99078.44;;;23.69;52.47
22096;BME280;24083;55.670;37.568;2023-06-22T06:14:40;99078.44;;;23.34;52.43
22096;BME280;24083;55.670;37.568;2023-06-22T06:32:45;99063.00;;;24.57;51.73
22096;BME280;24083;55.670;37.568;2023-06-22T06:35:38;99077.13;;;23.73;52.47
22096;BME280;24083;55.670;37.568;2023-06-22T06:38:25;99074.97;;;24.20;52.18
22096;BME280;24083;55.670;37.568;2023-06-22T06:44:35;99061.34;;;25.06;51.15
22096;BME280;24083;55.670;37.568;2023-06-22T06:47:27;99056.53;;;25.66;50.41
22096;BME280;24083;55.670;37.568;2023-06-22T06:56:54;99057.97;;;26.16;48.22
22096;BME280;24083;55.670;37.568;2023-06-22T06:59:45;99049.41;;;27.21;47.38
22096;BME280;24083;55.670;37.568;2023-06-22T07:03:23;99051.16;;;27.14;46.59
22096;BME280;24083;55.670;37.568;2023-06-22T07:09:38;99063.31;;;25.20;48.25
22096;BME280;24083;55.670;37.568;2023-06-22T07:12:07;99051.13;;;25.82;48.56
22096;BME280;24083;55.670;37.568;2023-06-22T07:14:52;99064.50;;;26.14;48.31
22096;BME280;24083;55.670;37.568;2023-06-22T07:17:21;99058.38;;;24.84;49.84
22096;BME280;24083;55.670;37.568;2023-06-22T07:20:00;99049.16;;;26.77;47.77
22096;BME280;24083;55.670;37.568;2023-06-22T07:26:37;99050.47;;;25.80;49.21
22096;BME280;24083;55.670;37.568;2023-06-22T07:29:32;99045.13;;;28.45;46.51
22096;BME280;24083;55.670;37.568;2023-06-22T07:32:03;99040.66;;;28.52;46.54
22096;BME280;24083;55.670;37.568;2023-06-22T07:35:09;99043.34;;;28.31;46.45
22096;BME280;24083;55.670;37.568;2023-06-22T07:41:49;99039.72;;;27.05;47.08
22096;BME280;24083;55.670;37.568;2023-06-22T07:44:44;99043.31;;;27.72;47.22
22096;BME280;24083;55.670;37.568;2023-06-22T07:48:24;99041.00;;;27.39;47.38
22096;BME280;24083;55.670;37.568;2023-06-22T07:55:13;99031.59;;;28.53;46.04
22096;BME280;24083;55.670;37.568;2023-06-22T08:01:39;99034.19;;;27.51;47.38
22096;BME280;24083;55.670;37.568;2023-06-22T08:04:06;99031.53;;;29.32;45.93
22096;BME280;24083;55.670;37.568;2023-06-22T08:06:34;99035.00;;;27.22;46.98
22096;BME280;24083;55.670;37.568;2023-06-22T08:12:47;99028.66;;;28.05;45.43
22096;BME280;24083;55.670;37.568;2023-06-22T08:18:20;99029.28;;;26.95;46.96
22096;BME280;24083;55.670;37.568;2023-06-22T08:20:49;99030.59;;;27.29;46.90
22096;BME280;24083;55.670;37.568;2023-06-22T08:27:14;99021.59;;;26.54;48.45
22096;BME280;24083;55.670;37.568;2023-06-22T08:29:59;99018.97;;;28.25;46.40
22096;BME280;24083;55.670;37.568;2023-06-22T08:32:37;99019.41;;;27.40;47.16
22096;BME280;24083;55.670;37.568;2023-06-22T08:41:29;99012.28;;;25.71;49.55
22096;BME280;24083;55.670;37.568;2023-06-22T08:44:06;99027.69;;;26.47;48.30
22096;BME280;24083;55.670;37.568;2023-06-22T08:46:38;99012.44;;;26.71;48.06
22096;BME280;24083;55.670;37.568;2023-06-22T08:49:06;99010.81;;;26.47;48.57
22096;BME280;24083;55.670;37.568;2023-06-22T08:51:57;99004.41;;;28.13;46.69
22096;BME280;24083;55.670;37.568;2023-06-22T08:58:18;98995.00;;;25.90;49.20
22096;BME280;24083;55.670;37.568;2023-06-22T09:00:47;98987.41;;;25.79;49.26
22096;BME280;24083;55.670;37.568;2023-06-22T09:10:45;99000.16;;;26.24;48.08
22096;BME280;24083;55.670;37.568;2023-06-22T09:13:13;98990.72;;;25.81;48.71
22096;BME280;24083;55.670;37.568;2023-06-22T09:15:40;98991.34;;;26.38;47.95
22096;BME280;24083;55.670;37.568;2023-06-22T09:18:33;98985.88;;;26.08;48.58
22096;BME280;24083;55.670;37.568;2023-06-22T09:21:01;98991.34;;;25.91;48.92
22096;BME280;24083;55.670;37.568;2023-06-22T09:23:33;98992.97;;;25.21;49.14
22096;BME280;24083;55.670;37.568;2023-06-22T09:26:28;98984.47;;;26.20;48.96
22096;BME280;24083;55.670;37.568;2023-06-22T09:28:57;98976.41;;;26.29;48.20
22096;BME280;24083;55.670;37.568;2023-06-22T09:31:51;98980.56;;;26.70;47.76
22096;BME280;24083;55.670;37.568;2023-06-22T09:34:19;98976.84;;;26.09;48.00
22096;BME280;24083;55.670;37.568;2023-06-22T09:36:48;98973.75;;;25.74;48.84
22096;BME280;24083;55.670;37.568;2023-06-22T09:39:19;98983.34;;;26.38;48.83
22096;BME280;24083;55.670;37.568;2023-06-22T09:41:48;98981.75;;;26.29;49.42
22096;BME280;24083;55.670;37.568;2023-06-22T09:44:16;98972.94;;;27.11;47.66
22096;BME280;24083;55.670;37.568;2023-06-22T09:46:43;98968.22;;;27.14;48.32
22096;BME280;24083;55.670;37.568;2023-06-22T09:49:10;98970.34;;;26.88;48.57
22096;BME280;24083;55.670;37.568;2023-06-22T09:51:37;98967.72;;;27.40;47.88
22096;BME280;24083;55.670;37.568;2023-06-22T09:54:07;98964.56;;;26.85;47.66
22096;BME280;24083;55.670;37.568;2023-06-22T09:56:36;98949.25;;;27.60;47.42
22096;BME280;24083;55.670;37.568;2023-06-22T09:59:05;98949.78;;;27.49;47.65
22096;BME280;24083;55.670;37.568;2023-06-22T10:01:31;98948.47;;;26.08;49.31
22096;BME280;24083;55.670;37.568;2023-06-22T10:07:18;98966.47;;;26.76;49.04
22096;BME280;24083;55.670;37.568;2023-06-22T10:09:49;98961.16;;;26.14;48.55
22096;BME280;24083;55.670;37.568;2023-06-22T10:12:16;98973.63;;;26.22;48.48
22096;BME280;24083;55.670;37.568;2023-06-22T10:14:44;98963.44;;;26.94;46.58
22096;BME280;24083;55.670;37.568;2023-06-22T10:17:15;98950.84;;;27.39;47.51
22096;BME280;24083;55.670;37.568;2023-06-22T10:19:46;98940.75;;;28.15;46.69
22096;BME280;24083;55.670;37.568;2023-06-22T10:22:16;98939.72;;;27.21;47.33
22096;BME280;24083;55.670;37.568;2023-06-22T10:24:52;98926.38;;;28.01;46.62
22096;BME280;24083;55.670;37.568;2023-06-22T10:27:18;98937.00;;;26.61;48.45
22096;BME280;24083;55.670;37.568;2023-06-22T10:29:44;98917.84;;;26.72;48.07
22096;BME280;24083;55.670;37.568;2023-06-22T10:32:14;98907.06;;;27.62;47.56
22096;BME280;24083;55.670;37.568;2023-06-22T10:34:41;98908.91;;;27.83;47.32
22096;BME280;24083;55.670;37.568;2023-06-22T10:37:11;98907.44;;;27.07;48.11
22096;BME280;24083;55.670;37.568;2023-06-22T10:39:42;98899.75;;;28.43;46.67
22096;BME280;24083;55.670;37.568;2023-06-22T10:42:09;98894.31;;;27.64;47.78
22096;BME280;24083;55.670;37.568;2023-06-22T10:44:34;98899.59;;;28.51;46.35
22096;BME280;24083;55.670;37.568;2023-06-22T10:47:00;98902.94;;;27.60;47.06
22096;BME280;24083;55.670;37.568;2023-06-22T10:49:27;98895.56;;;28.69;46.06
22096;BME280;24083;55.670;37.568;2023-06-22T10:51:55;98897.13;;;27.78;46.86
22096;BME280;24083;55.670;37.568;2023-06-22T10:58:44;98900.75;;;26.81;48.06
22096;BME280;24083;55.670;37.568;2023-06-22T11:04:10;98883.81;;;28.70;46.53
22096;BME280;24083;55.670;37.568;2023-06-22T11:06:35;98880.31;;;28.69;46.37
22096;BME280;24083;55.670;37.568;2023-06-22T11:09:02;98868.00;;;27.68;47.02
22096;BME280;24083;55.670;37.568;2023-06-22T11:11:57;98868.75;;;28.34;46.71
22096;BME280;24083;55.670;37.568;2023-06-22T11:14:30;98878.78;;;28.88;45.91
22096;BME280;24083;55.670;37.568;2023-06-22T11:24:03;98869.78;;;28.33;46.03
22096;BME280;24083;55.670;37.568;2023-06-22T11:26:46;98864.88;;;29.27;45.94
22096;BME280;24083;55.670;37.568;2023-06-22T11:29:17;98862.53;;;30.40;44.86
22096;BME280;24083;55.670;37.568;2023-06-22T11:31:43;98870.91;;;28.80;45.39
22096;BME280;24083;55.670;37.568;2023-06-22T11:34:09;98863.25;;;29.26;45.10
22096;BME280;24083;55.670;37.568;2023-06-22T11:36:56;98860.94;;;29.98;44.91
22096;BME280;24083;55.670;37.568;2023-06-22T11:39:55;98861.25;;;29.41;45.12
22096;BME280;24083;55.670;37.568;2023-06-22T11:42:24;98841.06;;;30.13;44.17
22096;BME280;24083;55.670;37.568;2023-06-22T11:44:50;98838.56;;;30.38;43.51
22096;BME280;24083;55.670;37.568;2023-06-22T11:47:17;98846.41;;;29.45;44.86
22096;BME280;24083;55.670;37.568;2023-06-22T11:49:44;98853.91;;;29.08;45.09
22096;BME280;24083;55.670;37.568;2023-06-22T11:52:39;98837.31;;;29.46;45.09
22096;BME280;24083;55.670;37.568;2023-06-22T11:55:12;98837.72;;;30.24;44.78
22096;BME280;24083;55.670;37.568;2023-06-22T11:57:52;98824.53;;;31.34;43.66
22096;BME280;24083;55.670;37.568;2023-06-22T12:00:22;98822.78;;;30.69;43.33
22096;BME280;24083;55.670;37.568;2023-06-22T12:02:54;98811.69;;;29.77;44.60
22096;BME280;24083;55.670;37.568;2023-06-22T12:05:22;98815.56;;;31.72;42.82
22096;BME280;24083;55.670;37.568;2023-06-22T12:07:48;98811.06;;;32.54;42.22
22096;BME280;24083;55.670;37.568;2023-06-22T12:10:21;98803.00;;;33.03;41.88
22096;BME280;24083;55.670;37.568;2023-06-22T12:12:49;98786.44;;;35.02;40.20
22096;BME280;24083;55.670;37.568;2023-06-22T12:15:42;98789.34;;;35.29;39.27
22096;BME280;24083;55.670;37.568;2023-06-22T12:18:11;98789.06;;;34.85;39.34
22096;BME280;24083;55.670;37.568;2023-06-22T12:20:40;98788.53;;;34.06;39.98
22096;BME280;24083;55.670;37.568;2023-06-22T12:23:14;98791.56;;;33.74;40.17
22096;BME280;24083;55.670;37.568;2023-06-22T12:26:10;98782.97;;;34.77;39.19
22096;BME280;24083;55.670;37.568;2023-06-22T12:29:02;98776.53;;;33.78;39.33
22096;BME280;24083;55.670;37.568;2023-06-22T12:31:30;98771.28;;;35.86;37.33
22096;BME280;24083;55.670;37.568;2023-06-22T12:34:05;98776.19;;;34.63;38.35
22096;BME280;24083;55.670;37.568;2023-06-22T12:36:31;98778.72;;;34.82;37.74
22096;BME280;24083;55.670;37.568;2023-06-22T12:38:58;98774.44;;;32.95;39.47
22096;BME280;24083;55.670;37.568;2023-06-22T12:41:52;98768.28;;;33.49;38.53
22096;BME280;24083;55.670;37.568;2023-06-22T12:44:22;98764.25;;;33.40;39.64
22096;BME280;24083;55.670;37.568;2023-06-22T12:46:53;98758.25;;;36.22;37.37
22096;BME280;24083;55.670;37.568;2023-06-22T12:49:30;98750.00;;;36.84;35.75
22096;BME280;24083;55.670;37.568;2023-06-22T12:52:00;98734.47;;;40.38;33.85
22096;BME280;24083;55.670;37.568;2023-06-22T12:54:29;98739.00;;;38.68;33.59
22096;BME280;24083;55.670;37.568;2023-06-22T12:56:56;98734.78;;;38.34;33.21
22096;BME280;24083;55.670;37.568;2023-06-22T12:59:27;98737.75;;;37.41;34.83
22096;BME280;24083;55.670;37.568;2023-06-22T13:01:55;98731.78;;;37.39;34.28
22096;BME280;24083;55.670;37.568;2023-06-22T13:04:27;98741.56;;;35.23;35.32
22096;BME280;24083;55.670;37.568;2023-06-22T13:06:54;98757.03;;;32.23;37.38
22096;BME280;24083;55.670;37.568;2023-06-22T13:09:26;98749.47;;;33.54;36.72
22096;BME280;24083;55.670;37.568;2023-06-22T13:11:55;98743.19;;;33.30;37.14
22096;BME280;24083;55.670;37.568;2023-06-22T13:14:25;98743.03;;;32.52;38.11
22096;BME280;24083;55.670;37.568;2023-06-22T13:16:52;98747.16;;;31.22;39.21
22096;BME280;24083;55.670;37.568;2023-06-22T13:22:44;98744.94;;;30.74;40.62
22096;BME280;24083;55.670;37.568;2023-06-22T13:32:00;98725.66;;;33.09;39.10
22096;BME280;24083;55.670;37.568;2023-06-22T13:34:27;98721.41;;;34.85;37.58
22096;BME280;24083;55.670;37.568;2023-06-22T13:37:04;98715.91;;;37.26;35.74
22096;BME280;24083;55.670;37.568;2023-06-22T13:39:30;98714.22;;;37.52;35.51
22096;BME280;24083;55.670;37.568;2023-06-22T13:42:25;98715.72;;;35.67;35.57
22096;BME280;24083;55.670;37.568;2023-06-22T13:44:51;98703.59;;;35.91;36.13
22096;BME280;24083;55.670;37.568;2023-06-22T13:47:21;98707.28;;;35.46;36.65
22096;BME280;24083;55.670;37.568;2023-06-22T13:50:07;98707.44;;;37.55;34.63
22096;BME280;24083;55.670;37.568;2023-06-22T13:52:39;98710.72;;;34.49;36.81
22096;BME280;24083;55.670;37.568;2023-06-22T13:55:20;98701.75;;;33.24;38.59
22096;BME280;24083;55.670;37.568;2023-06-22T13:58:38;98712.50;;;32.21;39.66
22096;BME280;24083;55.670;37.568;2023-06-22T14:01:05;98705.19;;;32.89;39.48
22096;BME280;24083;55.670;37.568;2023-06-22T14:03:54;98698.59;;;33.87;38.64
22096;BME280;24083;55.670;37.568;2023-06-22T14:06:28;98686.84;;;36.94;36.47
22096;BME280;24083;55.670;37.568;2023-06-22T14:08:57;98675.59;;;39.35;34.10
22096;BME280;24083;55.670;37.568;2023-06-22T14:11:38;98670.19;;;40.95;32.83
22096;BME280;24083;55.670;37.568;2023-06-22T14:14:08;98666.78;;;41.68;32.52
22096;BME280;24083;55.670;37.568;2023-06-22T14:16:34;98666.59;;;42.65;31.35
22096;BME280;24083;55.670;37.568;2023-06-22T14:19:03;98679.69;;;40.69;32.11
22096;BME280;24083;55.670;37.568;2023-06-22T14:21:36;98672.84;;;41.06;31.63
22096;BME280;24083;55.670;37.568;2023-06-22T14:24:08;98674.47;;;39.20;32.28
22096;BME280;24083;55.670;37.568;2023-06-22T14:26:34;98675.56;;;38.98;32.36
22096;BME280;24083;55.670;37.568;2023-06-22T14:29:07;98663.31;;;41.03;32.06
22096;BME280;24083;55.670;37.568;2023-06-22T14:31:46;98668.22;;;39.09;32.70
22096;BME280;24083;55.670;37.568;2023-06-22T14:34:15;98663.88;;;38.98;31.41
22096;BME280;24083;55.670;37.568;2023-06-22T14:36:45;98664.75;;;37.18;34.04
22096;BME280;24083;55.670;37.568;2023-06-22T14:39:16;98671.94;;;37.72;33.29
22096;BME280;24083;55.670;37.568;2023-06-22T14:41:47;98684.50;;;38.47;32.48
22096;BME280;24083;55.670;37.568;2023-06-22T14:44:22;98678.47;;;37.33;33.26
22096;BME280;24083;55.670;37.568;2023-06-22T14:47:20;98670.66;;;37.90;33.23
22096;BME280;24083;55.670;37.568;2023-06-22T14:49:48;98669.66;;;38.07;33.28
22096;BME280;24083;55.670;37.568;2023-06-22T14:52:20;98675.13;;;36.93;34.28
22096;BME280;24083;55.670;37.568;2023-06-22T14:54:52;98667.97;;;36.05;34.71
22096;BME280;24083;55.670;37.568;2023-06-22T14:57:19;98672.91;;;35.69;34.85
22096;BME280;24083;55.670;37.568;2023-06-22T14:59:49;98665.13;;;36.39;33.99
22096;BME280;24083;55.670;37.568;2023-06-22T15:02:18;98662.75;;;38.57;32.36
22096;BME280;24083;55.670;37.568;2023-06-22T15:05:02;98651.81;;;39.30;31.82
22096;BME280;24083;55.670;37.568;2023-06-22T15:07:44;98650.41;;;39.63;31.78
22096;BME280;24083;55.670;37.568;2023-06-22T15:10:16;98650.59;;;36.83;32.89
22096;BME280;24083;55.670;37.568;2023-06-22T15:12:44;98653.19;;;38.55;32.15
22096;BME280;24083;55.670;37.568;2023-06-22T15:15:20;98643.97;;;38.77;32.46
22096;BME280;24083;55.670;37.568;2023-06-22T15:17:46;98643.00;;;38.09;31.95
22096;BME280;24083;55.670;37.568;2023-06-22T15:20:14;98649.66;;;36.67;32.97
22096;BME280;24083;55.670;37.568;2023-06-22T15:26:12;98643.53;;;38.00;32.56
22096;BME280;24083;55.670;37.568;2023-06-22T15:28:46;98637.41;;;38.72;32.24
22096;BME280;24083;55.670;37.568;2023-06-22T15:31:49;98635.72;;;36.86;33.09
22096;BME280;24083;55.670;37.568;2023-06-22T15:34:16;98631.81;;;37.04;33.46
22096;BME280;24083;55.670;37.568;2023-06-22T15:36:48;98635.22;;;36.34;33.59
22096;BME280;24083;55.670;37.568;2023-06-22T15:39:17;98638.91;;;36.50;33.87
22096;BME280;24083;55.670;37.568;2023-06-22T15:42:11;98643.91;;;34.21;35.65
22096;BME280;24083;55.670;37.568;2023-06-22T15:44:46;98632.72;;;36.05;34.53
22096;BME280;24083;55.670;37.568;2023-06-22T15:47:26;98628.63;;;35.80;34.39
22096;BME280;24083;55.670;37.568;2023-06-22T15:49:52;98631.19;;;36.14;34.27
22096;BME280;24083;55.670;37.568;2023-06-22T15:52:32;98627.44;;;36.70;33.48
22096;BME280;24083;55.670;37.568;2023-06-22T15:55:04;98634.78;;;33.98;36.05
22096;BME280;24083;55.670;37.568;2023-06-22T15:57:57;98636.84;;;34.20;36.07
22096;BME280;24083;55.670;37.568;2023-06-22T16:07:13;98626.25;;;36.56;34.68
22096;BME280;24083;55.670;37.568;2023-06-22T16:09:41;98608.81;;;38.70;32.93
22096;BME280;24083;55.670;37.568;2023-06-22T16:12:11;98607.19;;;38.84;32.23
22096;BME280;24083;55.670;37.568;2023-06-22T16:19:12;98617.78;;;35.41;34.73
22096;BME280;24083;55.670;37.568;2023-06-22T16:21:45;98612.19;;;37.39;33.42
22096;BME280;24083;55.670;37.568;2023-06-22T16:24:13;98608.59;;;37.23;33.71
22096;BME280;24083;55.670;37.568;2023-06-22T16:33:25;98617.56;;;37.29;35.65
22096;BME280;24083;55.670;37.568;2023-06-22T16:39:18;98636.34;;;35.49;37.32
22096;BME280;24083;55.670;37.568;2023-06-22T16:42:10;98646.03;;;33.54;39.26
22096;BME280;24083;55.670;37.568;2023-06-22T16:45:12;98650.91;;;33.33;39.76
22096;BME280;24083;55.670;37.568;2023-06-22T16:53:57;98648.88;;;31.57;41.85
22096;BME280;24083;55.670;37.568;2023-06-22T16:59:39;98656.91;;;30.49;43.73
22096;BME280;24083;55.670;37.568;2023-06-22T17:02:16;98651.00;;;31.30;42.77
22096;BME280;24083;55.670;37.568;2023-06-22T17:08:44;98640.84;;;30.35;44.35
22096;BME280;24083;55.670;37.568;2023-06-22T17:19:06;98669.38;;;29.24;46.10
22096;BME280;24083;55.670;37.568;2023-06-22T17:24:50;98664.34;;;28.05;47.50
22096;BME280;24083;55.670;37.568;2023-06-22T17:27:28;98670.72;;;28.52;47.38
22096;BME280;24083;55.670;37.568;2023-06-22T17:30:10;98665.66;;;28.22;47.64
22096;BME280;24083;55.670;37.568;2023-06-22T17:32:47;98669.84;;;27.96;48.04
22096;BME280;24083;55.670;37.568;2023-06-22T17:35:50;98670.72;;;28.04;48.16
22096;BME280;24083;55.670;37.568;2023-06-22T17:38:36;98677.06;;;27.39;49.08
22096;BME280;24083;55.670;37.568;2023-06-22T17:48:52;98688.53;;;26.83;50.42
22096;BME280;24083;55.670;37.568;2023-06-22T17:51:18;98693.16;;;26.59;50.63
22096;BME280;24083;55.670;37.568;2023-06-22T17:54:21;98685.50;;;26.34;51.16
22096;BME280;24083;55.670;37.568;2023-06-22T17:56:51;98691.94;;;26.25;51.39
22096;BME280;24083;55.670;37.568;2023-06-22T17:59:48;98681.88;;;26.42;51.21
22096;BME280;24083;55.670;37.568;2023-06-22T18:02:37;98691.31;;;25.92;52.32
22096;BME280;24083;55.670;37.568;2023-06-22T18:05:06;98689.38;;;26.16;51.82
22096;BME280;24083;55.670;37.568;2023-06-22T18:07:46;98686.22;;;25.98;52.16
22096;BME280;24083;55.670;37.568;2023-06-22T18:10:15;98700.34;;;25.53;52.99
22096;BME280;24083;55.670;37.568;2023-06-22T18:12:47;98692.56;;;25.67;52.97
22096;BME280;24083;55.670;37.568;2023-06-22T18:15:31;98688.75;;;25.46;53.35
22096;BME280;24083;55.670;37.568;2023-06-22T18:17:59;98700.78;;;25.42;53.34
22096;BME280;24083;55.670;37.568;2023-06-22T18:20:55;98696.53;;;25.32;54.04
22096;BME280;24083;55.670;37.568;2023-06-22T18:23:39;98697.50;;;25.16;54.49
22096;BME280;24083;55.670;37.568;2023-06-22T18:26:25;98695.50;;;25.33;54.07
22096;BME280;24083;55.670;37.568;2023-06-22T18:29:04;98692.78;;;24.95;54.65
22096;BME280;24083;55.670;37.568;2023-06-22T18:31:31;98688.19;;;24.89;54.93